map of KIJ home
KIJ - Airport
Location
City:  Niigata, Niigata, Japan
Name:Niigata Airport
ICAO:RJSN
IATA:KIJ

Details
Type:Airport (Aerodrome, Airfield)
Use:Public/Civil, Military, International (customs port of entry)
Latitude:3757'21"N (37.955892)
Longitude:13907'15"E (139.120717)
Datum:WGS 1984
Elevation:29 ft (9 m)
Variation:8.39W (WMM2015v2 magnetic declination)
-0.06 annual change
Runways:2
Longest:8200 × 150 ft (2499 × 45.5 m), paved

Time
Time Zone:UTC+9
Local Time:

Weather
METAR:RJSN 041200Z 30017KT 9999 FEW020 SCT070 02/M08 Q1023
TAF:RJSN 041105Z 0412/0518 30016KT 9999 FEW020 BKN040
BECMG 0500/0503 24010KT
BECMG 0506/0509 16008KT

Related Locations
Nearby:
Farthest:SSMT: 11697 mi / 18824 km
Mostardas, RS, BR

Find:

   beyond  
but within

Other Information
Maps:
NOTAMs:
Links:
Sources:

  
  • flag of Japan
  • flag of Niigata
  • flag of Niigata
  

Sectional Chart

Flight Planning
at skyvector.com

Satellite Image

Google Maps Satellite view

 

Copyright © 2004-2019 Karl L. Swartz. All rights reserved.
The Great Circle Mapper name and logo are trademarks of the Great Circle Mapper.
All other trademarks mentioned herein belong to their respective owners.
Please see credits for attibutions and further copyright information.

  Follow gcmap on Facebook Follow gcmap on Twitter GCmap on LinkedIn

hCard Microformat

Geo Microformat